Portada
METAR-TAF:

METAR-TAF

Aeropuertos :

Aeropuerto Internacional de Nayaf

Nayaf, Iraq

latitud: 31-59-23N, longitud: 44-24-15E, altitud: 31 m

Observación

El informe se hizo hace 32 minutos, a las 11:00 UTC
Viento 12 kt del noroeste
Temperatura 20°C
Humedad 46%
Presión 1012 hPa
Visibilidad 10 km o más
Cielo nuboso a una altura de 4000 ft

METAR: ORNI 201100Z 32012KT 9999 BKN040 20/08 Q1012 NOSIG

Hora: 14:32 (11:32 UTC)

Pronóstico

El informe se hizo hace 7 horas y 32 minutos, a las 04:00 UTC
Pronóstico válido del 20 a las 06 UTC al 21 a las 06 UTC
Viento 12 kt del noroeste
Visibilidad: 6000 m
Nubes dispersas a una altura de 4000 ft

TAF: ORNI 200400Z 2006/2106 32012KT 6000 SCT040

Observaciones y pronósticos meteorológicos de más de 4000 aeropuertos (mensajes METAR y TAF).

Los puntos amarillos y rojos representan las estaciones disponibles.

Ponga el ratón en el punto deseado para ver el nombre de la estación.

Haga clic para ver las observaciones y los pronósticos meteorológicos.

Para cambiar el mapa : haga clic en los botones verdes con una cruz de color negro para hacer un zoom, en el botón verde con un guión para alejar o en las flechas verdes para mapas adyacentes.


METAR-TAF: